Time,TemperatureF,DewpointF,PressureIn,WindDirection,WindDirectionDegrees,WindSpeedMPH,WindSpeedGustMPH,Humidity,HourlyPrecipIn,Conditions,Clouds,dailyrainin,SoftwareType,DateUTC
2013-04-07 00:12:00,47.0,30.0,30.21,South,174,1.0,1.0,52,0.00,,,0.00,weatherlink.com 1.10,2013-04-07 04:12:00,
2013-04-07 00:27:00,46.4,31.0,30.21,South,174,0.0,1.0,55,0.00,,,0.00,weatherlink.com 1.10,2013-04-07 04:27:00,
2013-04-07 00:42:00,46.0,30.0,30.21,South,173,0.0,1.0,55,0.00,,,0.00,weatherlink.com 1.10,2013-04-07 04:42:00,
2013-04-07 00:57:00,45.7,31.0,30.21,South,173,0.0,1.0,56,0.00,,,0.00,weatherlink.com 1.10,2013-04-07 04:57:00,
2013-04-07 01:12:00,45.6,31.0,30.21,SE,126,0.0,1.0,57,0.00,,,0.00,weatherlink.com 1.10,2013-04-07 05:12:00,
2013-04-07 01:27:00,45.5,32.0,30.21,East,84,0.0,5.0,59,0.00,,,0.00,weatherlink.com 1.10,2013-04-07 05:27:00,
2013-04-07 01:42:00,45.3,32.0,30.21,East,84,0.0,1.0,60,0.00,,,0.00,weatherlink.com 1.10,2013-04-07 05:42:00,
2013-04-07 01:57:00,45.2,33.0,30.21,SE,135,0.0,1.0,62,0.00,,,0.00,weatherlink.com 1.10,2013-04-07 05:57:00,
2013-04-07 04:02:00,44.1,37.0,30.21,South,171,0.0,0.0,75,0.00,,,0.00,weatherlink.com 1.10,2013-04-07 08:02:00,
2013-04-07 04:43:00,42.2,36.0,30.22,South,171,0.0,0.0,79,0.00,,,0.00,weatherlink.com 1.10,2013-04-07 08:43:00,
2013-04-07 05:59:00,41.6,36.0,30.22,SSE,153,4.0,4.0,81,0.00,,,0.00,weatherlink.com 1.10,2013-04-07 09:59:00,
2013-04-07 06:13:00,41.8,36.0,30.22,SE,134,0.0,3.0,81,0.00,,,0.00,weatherlink.com 1.10,2013-04-07 10:13:00,
2013-04-07 06:29:00,41.7,36.0,30.22,SE,126,3.0,4.0,81,0.00,,,0.00,weatherlink.com 1.10,2013-04-07 10:29:00,
2013-04-07 06:59:00,40.9,36.0,30.23,SE,128,3.0,5.0,84,0.00,,,0.00,weatherlink.com 1.10,2013-04-07 10:59:00,
2013-04-07 07:14:00,40.6,36.0,30.23,SE,124,3.0,5.0,84,0.00,,,0.00,weatherlink.com 1.10,2013-04-07 11:14:00,
2013-04-07 07:29:00,40.6,37.0,30.23,ESE,120,3.0,6.0,85,0.00,,,0.00,weatherlink.com 1.10,2013-04-07 11:29:00,
2013-04-07 07:44:00,42.3,38.0,30.23,SE,140,5.0,7.0,84,0.00,,,0.00,weatherlink.com 1.10,2013-04-07 11:44:00,
2013-04-07 07:59:00,43.8,38.0,30.23,SSE,155,2.0,7.0,81,0.00,,,0.00,weatherlink.com 1.10,2013-04-07 11:59:00,
2013-04-07 08:29:00,46.3,39.0,30.23,South,175,5.0,10.0,75,0.00,,,0.00,weatherlink.com 1.10,2013-04-07 12:29:00,
2013-04-07 08:44:00,46.9,38.0,30.24,South,173,4.0,10.0,72,0.00,,,0.00,weatherlink.com 1.10,2013-04-07 12:44:00,
2013-04-07 08:59:00,47.6,39.0,30.24,SSE,167,3.0,10.0,72,0.00,,,0.00,weatherlink.com 1.10,2013-04-07 12:59:00,
2013-04-07 09:14:00,48.6,39.0,30.23,South,175,4.0,11.0,70,0.00,,,0.00,weatherlink.com 1.10,2013-04-07 13:14:00,
2013-04-07 09:29:00,49.8,40.0,30.23,SSE,151,4.0,10.0,69,0.00,,,0.00,weatherlink.com 1.10,2013-04-07 13:29:00,
2013-04-07 09:44:00,51.9,41.0,30.23,South,180,6.0,6.0,66,0.00,,,0.00,weatherlink.com 1.10,2013-04-07 13:44:00,
2013-04-07 09:59:00,53.8,41.0,30.23,SSE,157,10.0,10.0,62,0.00,,,0.00,weatherlink.com 1.10,2013-04-07 13:59:00,
2013-04-07 10:14:00,55.7,42.0,30.23,SW,234,4.0,9.0,60,0.00,,,0.00,weatherlink.com 1.10,2013-04-07 14:14:00,
2013-04-07 10:29:00,56.6,42.0,30.23,SSE,151,3.0,10.0,58,0.00,,,0.00,weatherlink.com 1.10,2013-04-07 14:29:00,
2013-04-07 10:44:00,58.2,43.0,30.22,WSW,242,8.0,8.0,58,0.00,,,0.00,weatherlink.com 1.10,2013-04-07 14:44:00,
2013-04-07 11:14:00,60.4,42.0,30.22,WSW,244,5.0,10.0,52,0.00,,,0.00,weatherlink.com 1.10,2013-04-07 15:14:00,
2013-04-07 11:29:00,61.9,42.0,30.22,SSE,167,7.0,14.0,49,0.00,,,0.00,weatherlink.com 1.10,2013-04-07 15:29:00,
2013-04-07 11:44:00,62.5,41.0,30.22,WSW,243,6.0,15.0,45,0.00,,,0.00,weatherlink.com 1.10,2013-04-07 15:44:00,
2013-04-07 11:59:00,64.1,42.0,30.22,SSW,209,6.0,13.0,44,0.00,,,0.00,weatherlink.com 1.10,2013-04-07 15:59:00,
2013-04-07 12:14:00,64.2,42.0,30.21,West,262,3.0,11.0,44,0.00,,,0.00,weatherlink.com 1.10,2013-04-07 16:14:00,
2013-04-07 12:29:00,65.6,42.0,30.20,SSW,203,6.0,13.0,43,0.00,,,0.00,weatherlink.com 1.10,2013-04-07 16:29:00,
2013-04-07 12:45:00,67.1,42.0,30.18,ESE,123,5.0,11.0,41,0.00,,,0.00,weatherlink.com 1.10,2013-04-07 16:45:00,
2013-04-07 13:15:00,66.3,42.0,30.17,WSW,248,8.0,13.0,42,0.00,,,0.00,weatherlink.com 1.10,2013-04-07 17:15:00,
2013-04-07 13:30:00,68.1,43.0,30.16,SSW,211,12.0,13.0,41,0.00,,,0.00,weatherlink.com 1.10,2013-04-07 17:30:00,
2013-04-07 13:45:00,67.8,43.0,30.16,WSW,258,8.0,14.0,41,0.00,,,0.00,weatherlink.com 1.10,2013-04-07 17:45:00,
2013-04-07 14:00:00,69.0,44.0,30.14,SW,232,5.0,14.0,40,0.00,,,0.00,weatherlink.com 1.10,2013-04-07 18:00:00,
2013-04-07 14:15:00,68.3,42.0,30.13,South,184,5.0,13.0,39,0.00,,,0.00,weatherlink.com 1.10,2013-04-07 18:15:00,
2013-04-07 14:30:00,69.6,43.0,30.12,WSW,241,6.0,15.0,38,0.00,,,0.00,weatherlink.com 1.10,2013-04-07 18:30:00,
2013-04-07 14:45:00,70.0,43.0,30.11,SSW,196,1.0,12.0,38,0.00,,,0.00,weatherlink.com 1.10,2013-04-07 18:45:00,
2013-04-07 15:00:00,70.6,43.0,30.11,SSE,157,4.0,17.0,37,0.00,,,0.00,weatherlink.com 1.10,2013-04-07 19:00:00,
2013-04-07 15:15:00,70.9,43.0,30.10,SW,215,6.0,15.0,36,0.00,,,0.00,weatherlink.com 1.10,2013-04-07 19:15:00,
2013-04-07 15:30:00,70.8,43.0,30.10,ESE,119,5.0,17.0,37,0.00,,,0.00,weatherlink.com 1.10,2013-04-07 19:30:00,
2013-04-07 15:45:00,71.4,42.0,30.09,WSW,245,5.0,19.0,35,0.00,,,0.00,weatherlink.com 1.10,2013-04-07 19:45:00,
2013-04-07 16:00:00,71.7,43.0,30.09,SE,142,1.0,13.0,36,0.00,,,0.00,weatherlink.com 1.10,2013-04-07 20:00:00,
2013-04-07 16:15:00,71.7,43.0,30.08,West,265,3.0,19.0,36,0.00,,,0.00,weatherlink.com 1.10,2013-04-07 20:15:00,
2013-04-07 16:30:00,71.2,42.0,30.08,South,184,4.0,16.0,35,0.00,,,0.00,weatherlink.com 1.10,2013-04-07 20:30:00,
2013-04-07 16:45:00,71.6,42.0,30.08,WSW,244,13.0,13.0,35,0.00,,,0.00,weatherlink.com 1.10,2013-04-07 20:45:00,
2013-04-07 17:00:00,70.8,42.0,30.08,SE,125,3.0,11.0,36,0.00,,,0.00,weatherlink.com 1.10,2013-04-07 21:00:00,
2013-04-07 17:15:00,70.6,42.0,30.07,South,185,2.0,11.0,36,0.00,,,0.00,weatherlink.com 1.10,2013-04-07 21:15:00,
2013-04-07 17:30:00,70.3,42.0,30.08,NNW,348,1.0,10.0,36,0.00,,,0.00,weatherlink.com 1.10,2013-04-07 21:30:00,
2013-04-07 17:45:00,71.0,42.0,30.07,WNW,295,3.0,14.0,35,0.00,,,0.00,weatherlink.com 1.10,2013-04-07 21:45:00,
2013-04-07 18:00:00,70.8,42.0,30.07,SSW,207,4.0,16.0,35,0.00,,,0.00,weatherlink.com 1.10,2013-04-07 22:00:00,
2013-04-07 18:15:00,70.1,42.0,30.07,SSE,147,5.0,10.0,36,0.00,,,0.00,weatherlink.com 1.10,2013-04-07 22:15:00,
2013-04-07 18:30:00,69.5,41.0,30.07,SSE,163,2.0,12.0,36,0.00,,,0.00,weatherlink.com 1.10,2013-04-07 22:30:00,
2013-04-07 18:45:00,69.5,41.0,30.07,SSE,168,8.0,9.0,36,0.00,,,0.00,weatherlink.com 1.10,2013-04-07 22:45:00,
2013-04-07 19:00:00,68.9,41.0,30.08,NW,326,1.0,14.0,36,0.00,,,0.00,weatherlink.com 1.10,2013-04-07 23:00:00,
2013-04-07 19:15:00,68.3,42.0,30.08,WSW,256,2.0,7.0,38,0.00,,,0.00,weatherlink.com 1.10,2013-04-07 23:15:00,
2013-04-07 19:30:00,67.4,41.0,30.08,SSW,211,2.0,7.0,38,0.00,,,0.00,weatherlink.com 1.10,2013-04-07 23:30:00,
2013-04-07 19:45:00,66.5,41.0,30.08,SE,140,1.0,6.0,39,0.00,,,0.00,weatherlink.com 1.10,2013-04-07 23:45:00,
2013-04-07 20:00:00,65.7,41.0,30.08,SE,143,1.0,5.0,41,0.00,,,0.00,weatherlink.com 1.10,2013-04-08 00:00:00,
2013-04-07 20:15:00,64.9,42.0,30.09,South,188,0.0,3.0,43,0.00,,,0.00,weatherlink.com 1.10,2013-04-08 00:15:00,
2013-04-07 20:30:00,63.8,41.0,30.09,SE,126,1.0,3.0,44,0.00,,,0.00,weatherlink.com 1.10,2013-04-08 00:30:00,
2013-04-07 20:45:00,63.2,41.0,30.09,South,188,0.0,3.0,45,0.00,,,0.00,weatherlink.com 1.10,2013-04-08 00:45:00,
2013-04-07 21:00:00,63.0,41.0,30.09,South,189,1.0,4.0,45,0.00,,,0.00,weatherlink.com 1.10,2013-04-08 01:00:00,
2013-04-07 21:15:00,63.0,42.0,30.09,SSW,196,0.0,5.0,46,0.00,,,0.00,weatherlink.com 1.10,2013-04-08 01:15:00,
2013-04-07 21:30:00,62.7,42.0,30.10,East,95,1.0,6.0,47,0.00,,,0.00,weatherlink.com 1.10,2013-04-08 01:30:00,
2013-04-07 21:45:00,62.4,42.0,30.10,SSE,165,2.0,4.0,47,0.00,,,0.00,weatherlink.com 1.10,2013-04-08 01:45:00,
2013-04-07 22:01:00,62.1,42.0,30.10,South,169,3.0,5.0,48,0.00,,,0.00,weatherlink.com 1.10,2013-04-08 02:01:00,
2013-04-07 22:15:00,62.3,42.0,30.10,South,183,3.0,5.0,48,0.00,,,0.00,weatherlink.com 1.10,2013-04-08 02:15:00,
2013-04-07 22:45:00,61.2,43.0,30.09,SE,136,1.0,4.0,51,0.00,,,0.00,weatherlink.com 1.10,2013-04-08 02:45:00,
2013-04-07 23:00:00,61.2,43.0,30.09,SW,223,2.0,7.0,52,0.00,,,0.00,weatherlink.com 1.10,2013-04-08 03:00:00,
2013-04-07 23:15:00,61.2,43.0,30.09,South,176,1.0,3.0,52,0.00,,,0.00,weatherlink.com 1.10,2013-04-08 03:15:00,
2013-04-07 23:31:00,61.0,44.0,30.09,SSE,165,0.0,5.0,53,0.00,,,0.00,weatherlink.com 1.10,2013-04-08 03:31:00,
2013-04-07 23:45:00,60.6,44.0,30.09,SSE,163,2.0,4.0,54,0.00,,,0.00,weatherlink.com 1.10,2013-04-08 03:45:00,